Impacts TAF Board
For situational awareness. Not to be used for flight planning purposes.
IDs:

KSAF - Santa Fe Cnty Muni, NM, US

Issued at 1120 UTC 30 Oct 2020
Updated at 1636 UTC 30 Oct 2020
Potential Impact None Slight Moderate High
Time1553Z 30/17Z 30/18Z 30/19Z 30/20Z 30/21Z 30/22Z 30/23Z 31/00Z 31/01Z 31/02Z 31/03Z 31/04Z 31/05Z>>
Type OBS PRVL PRVL PRVL PRVL PRVL PRVL PRVL PRVL PRVL PRVL PRVL PRVL PRVL
VIS 10 >6 >6 >6 >6 >6 >6 >6 >6 >6 >6 >6 >6 >6
CIG -- -- -- -- -- -- -- -- -- -- -- -- -- --
Cover CLR FEW FEW FEW SCT SCT SCT SCT SCT SCT SCT SCT SCT SCT
FltCat VFR VFR VFR VFR VFR VFR VFR VFR VFR VFR VFR VFR VFR VFR
WX -- -- -- -- -- -- -- -- -- -- -- -- -- --
WDir 360 360 360 360 240 240 240 240 240 240 350 350 350 350
WSpd 10 11 11 11 10 10 10 10 10 10 6 6 6 6
WGst -- -- -- -- -- -- -- -- -- -- -- -- -- --
Raw TAF
KSAF 301120Z 3012/3112 36011KT P6SM FEW250
  FM302000 24010KT P6SM SCT250
  FM310200 35006KT P6SM SCT250


Raw METAR
KSAF 301553Z 36010KT 10SM CLR 05/01 A3035 RMK AO2 SLP256 T00500006
KSAF 301453Z 36013KT 10SM CLR 03/00 A3034 RMK AO2 SLP248 T00280000 51004
KSAF 301353Z 36012KT 10SM CLR 01/M01 A3033 RMK AO2 SLP252 T00111006

METAR Board
Radar Display
Forecast Discussion
For situational awareness. Not to be used for flight planning purposes.